sensor_id;sensor_type;location;lat;lon;timestamp;P1;durP1;ratioP1;P2;durP2;ratioP2
1885;SDS011;943;51.568;6.998;2022-10-16T00:01:43;9.13;;;5.77;;
1885;SDS011;943;51.568;6.998;2022-10-16T00:04:11;8.37;;;5.17;;
1885;SDS011;943;51.568;6.998;2022-10-16T00:06:40;9.93;;;6.30;;
1885;SDS011;943;51.568;6.998;2022-10-16T00:09:07;9.47;;;5.87;;
1885;SDS011;943;51.568;6.998;2022-10-16T00:11:37;10.90;;;6.00;;
1885;SDS011;943;51.568;6.998;2022-10-16T00:14:11;10.33;;;6.00;;
1885;SDS011;943;51.568;6.998;2022-10-16T00:16:42;8.80;;;4.90;;
1885;SDS011;943;51.568;6.998;2022-10-16T00:19:10;11.33;;;5.90;;
1885;SDS011;943;51.568;6.998;2022-10-16T00:21:39;9.00;;;5.73;;
1885;SDS011;943;51.568;6.998;2022-10-16T00:24:07;13.60;;;5.93;;
1885;SDS011;943;51.568;6.998;2022-10-16T00:26:37;9.50;;;5.03;;
1885;SDS011;943;51.568;6.998;2022-10-16T00:29:07;11.47;;;5.27;;
1885;SDS011;943;51.568;6.998;2022-10-16T00:31:35;6.93;;;5.07;;
1885;SDS011;943;51.568;6.998;2022-10-16T00:34:04;10.60;;;4.77;;
1885;SDS011;943;51.568;6.998;2022-10-16T00:36:31;8.33;;;5.20;;
1885;SDS011;943;51.568;6.998;2022-10-16T00:38:59;6.77;;;4.70;;
1885;SDS011;943;51.568;6.998;2022-10-16T00:41:29;8.83;;;5.43;;
1885;SDS011;943;51.568;6.998;2022-10-16T00:43:59;9.27;;;5.50;;
1885;SDS011;943;51.568;6.998;2022-10-16T00:47:34;8.23;;;5.30;;
1885;SDS011;943;51.568;6.998;2022-10-16T00:50:28;8.10;;;4.83;;
1885;SDS011;943;51.568;6.998;2022-10-16T00:53:01;11.30;;;5.03;;
1885;SDS011;943;51.568;6.998;2022-10-16T00:55:30;7.37;;;4.80;;
1885;SDS011;943;51.568;6.998;2022-10-16T00:57:58;8.53;;;5.10;;
1885;SDS011;943;51.568;6.998;2022-10-16T01:00:27;8.53;;;5.50;;
1885;SDS011;943;51.568;6.998;2022-10-16T01:02:59;13.03;;;5.53;;
1885;SDS011;943;51.568;6.998;2022-10-16T01:05:55;8.47;;;4.70;;
1885;SDS011;943;51.568;6.998;2022-10-16T01:09:16;9.70;;;4.53;;
1885;SDS011;943;51.568;6.998;2022-10-16T01:12:41;6.37;;;5.10;;
1885;SDS011;943;51.568;6.998;2022-10-16T01:15:27;5.83;;;4.23;;
1885;SDS011;943;51.568;6.998;2022-10-16T01:18:08;7.70;;;4.60;;
1885;SDS011;943;51.568;6.998;2022-10-16T01:24:08;7.90;;;4.97;;
1885;SDS011;943;51.568;6.998;2022-10-16T01:30:06;7.07;;;4.63;;
1885;SDS011;943;51.568;6.998;2022-10-16T01:32:56;6.30;;;4.53;;
1885;SDS011;943;51.568;6.998;2022-10-16T01:35:37;16.90;;;4.83;;
1885;SDS011;943;51.568;6.998;2022-10-16T01:38:29;8.00;;;4.60;;
1885;SDS011;943;51.568;6.998;2022-10-16T01:43:58;9.47;;;3.90;;
1885;SDS011;943;51.568;6.998;2022-10-16T01:46:45;8.73;;;3.87;;
1885;SDS011;943;51.568;6.998;2022-10-16T01:49:18;6.33;;;3.97;;
1885;SDS011;943;51.568;6.998;2022-10-16T01:52:02;5.07;;;3.40;;
1885;SDS011;943;51.568;6.998;2022-10-16T01:54:47;6.10;;;3.90;;
1885;SDS011;943;51.568;6.998;2022-10-16T01:57:23;5.80;;;3.73;;
1885;SDS011;943;51.568;6.998;2022-10-16T01:59:54;5.33;;;3.43;;
1885;SDS011;943;51.568;6.998;2022-10-16T02:02:37;10.90;;;3.80;;
1885;SDS011;943;51.568;6.998;2022-10-16T02:05:27;5.80;;;3.10;;
1885;SDS011;943;51.568;6.998;2022-10-16T02:08:20;5.50;;;3.30;;
1885;SDS011;943;51.568;6.998;2022-10-16T02:10:56;4.43;;;3.00;;
1885;SDS011;943;51.568;6.998;2022-10-16T02:13:30;6.13;;;3.37;;
1885;SDS011;943;51.568;6.998;2022-10-16T02:16:38;5.70;;;3.80;;
1885;SDS011;943;51.568;6.998;2022-10-16T02:19:12;11.10;;;3.47;;
1885;SDS011;943;51.568;6.998;2022-10-16T02:21:50;7.57;;;3.30;;
1885;SDS011;943;51.568;6.998;2022-10-16T02:24:35;4.50;;;2.80;;
1885;SDS011;943;51.568;6.998;2022-10-16T02:27:51;5.80;;;3.07;;
1885;SDS011;943;51.568;6.998;2022-10-16T02:30:42;4.73;;;2.93;;
1885;SDS011;943;51.568;6.998;2022-10-16T02:33:31;6.87;;;3.33;;
1885;SDS011;943;51.568;6.998;2022-10-16T02:36:02;5.50;;;3.37;;
1885;SDS011;943;51.568;6.998;2022-10-16T02:38:31;5.03;;;2.80;;
1885;SDS011;943;51.568;6.998;2022-10-16T02:41:00;3.80;;;2.90;;
1885;SDS011;943;51.568;6.998;2022-10-16T02:43:29;3.70;;;2.30;;
1885;SDS011;943;51.568;6.998;2022-10-16T02:45:57;5.57;;;1.87;;
1885;SDS011;943;51.568;6.998;2022-10-16T02:48:25;4.03;;;2.43;;
1885;SDS011;943;51.568;6.998;2022-10-16T02:50:53;6.43;;;2.53;;
1885;SDS011;943;51.568;6.998;2022-10-16T02:53:21;5.80;;;2.77;;
1885;SDS011;943;51.568;6.998;2022-10-16T02:55:48;3.60;;;1.90;;
1885;SDS011;943;51.568;6.998;2022-10-16T02:58:16;7.93;;;2.67;;
1885;SDS011;943;51.568;6.998;2022-10-16T03:00:44;8.03;;;2.83;;
1885;SDS011;943;51.568;6.998;2022-10-16T03:03:12;4.10;;;2.13;;
1885;SDS011;943;51.568;6.998;2022-10-16T03:05:40;3.90;;;2.23;;
1885;SDS011;943;51.568;6.998;2022-10-16T03:08:12;4.57;;;2.80;;
1885;SDS011;943;51.568;6.998;2022-10-16T03:10:40;10.13;;;3.57;;
1885;SDS011;943;51.568;6.998;2022-10-16T03:13:08;5.47;;;3.50;;
1885;SDS011;943;51.568;6.998;2022-10-16T03:15:36;6.47;;;3.63;;
1885;SDS011;943;51.568;6.998;2022-10-16T03:18:04;3.60;;;2.77;;
1885;SDS011;943;51.568;6.998;2022-10-16T03:20:31;4.60;;;3.07;;
1885;SDS011;943;51.568;6.998;2022-10-16T03:23:00;5.17;;;2.33;;
1885;SDS011;943;51.568;6.998;2022-10-16T03:25:28;4.33;;;2.50;;
1885;SDS011;943;51.568;6.998;2022-10-16T03:27:56;4.60;;;2.70;;
1885;SDS011;943;51.568;6.998;2022-10-16T03:30:24;4.90;;;2.20;;
1885;SDS011;943;51.568;6.998;2022-10-16T03:32:51;4.87;;;2.17;;
1885;SDS011;943;51.568;6.998;2022-10-16T03:35:21;5.03;;;2.10;;
1885;SDS011;943;51.568;6.998;2022-10-16T03:37:51;4.27;;;1.87;;
1885;SDS011;943;51.568;6.998;2022-10-16T03:40:19;3.10;;;1.97;;
1885;SDS011;943;51.568;6.998;2022-10-16T03:42:48;3.67;;;1.80;;
1885;SDS011;943;51.568;6.998;2022-10-16T03:45:16;2.93;;;1.70;;
1885;SDS011;943;51.568;6.998;2022-10-16T03:47:44;6.13;;;1.80;;
1885;SDS011;943;51.568;6.998;2022-10-16T03:50:11;3.20;;;1.83;;
1885;SDS011;943;51.568;6.998;2022-10-16T03:52:39;3.80;;;1.67;;
1885;SDS011;943;51.568;6.998;2022-10-16T03:55:07;3.13;;;1.60;;
1885;SDS011;943;51.568;6.998;2022-10-16T03:57:35;5.70;;;1.67;;
1885;SDS011;943;51.568;6.998;2022-10-16T04:00:03;2.40;;;1.50;;
1885;SDS011;943;51.568;6.998;2022-10-16T04:02:37;2.30;;;1.80;;
1885;SDS011;943;51.568;6.998;2022-10-16T04:05:06;3.60;;;1.40;;
1885;SDS011;943;51.568;6.998;2022-10-16T04:07:34;3.57;;;2.07;;
1885;SDS011;943;51.568;6.998;2022-10-16T04:10:02;6.00;;;1.93;;
1885;SDS011;943;51.568;6.998;2022-10-16T04:12:31;3.20;;;1.80;;
1885;SDS011;943;51.568;6.998;2022-10-16T04:14:59;4.20;;;2.00;;
1885;SDS011;943;51.568;6.998;2022-10-16T04:17:27;4.23;;;2.17;;
1885;SDS011;943;51.568;6.998;2022-10-16T04:19:55;7.37;;;1.90;;
1885;SDS011;943;51.568;6.998;2022-10-16T04:22:22;2.40;;;1.50;;
1885;SDS011;943;51.568;6.998;2022-10-16T04:24:50;4.63;;;1.77;;
1885;SDS011;943;51.568;6.998;2022-10-16T04:27:17;2.80;;;1.87;;
1885;SDS011;943;51.568;6.998;2022-10-16T04:29:45;3.03;;;1.70;;
1885;SDS011;943;51.568;6.998;2022-10-16T04:32:13;2.90;;;1.70;;
1885;SDS011;943;51.568;6.998;2022-10-16T04:34:41;4.60;;;2.03;;
1885;SDS011;943;51.568;6.998;2022-10-16T04:37:08;4.60;;;1.70;;
1885;SDS011;943;51.568;6.998;2022-10-16T04:39:36;2.90;;;1.80;;
1885;SDS011;943;51.568;6.998;2022-10-16T04:42:04;3.50;;;1.77;;
1885;SDS011;943;51.568;6.998;2022-10-16T04:44:32;5.10;;;2.20;;
1885;SDS011;943;51.568;6.998;2022-10-16T04:47:00;3.80;;;2.00;;
1885;SDS011;943;51.568;6.998;2022-10-16T04:49:28;3.53;;;1.83;;
1885;SDS011;943;51.568;6.998;2022-10-16T04:51:56;3.10;;;2.00;;
1885;SDS011;943;51.568;6.998;2022-10-16T04:54:24;4.43;;;2.60;;
1885;SDS011;943;51.568;6.998;2022-10-16T04:56:52;4.87;;;2.77;;
1885;SDS011;943;51.568;6.998;2022-10-16T04:59:20;3.13;;;2.00;;
1885;SDS011;943;51.568;6.998;2022-10-16T05:01:49;4.03;;;2.40;;
1885;SDS011;943;51.568;6.998;2022-10-16T05:04:17;5.10;;;2.10;;
1885;SDS011;943;51.568;6.998;2022-10-16T05:06:44;2.93;;;2.00;;
1885;SDS011;943;51.568;6.998;2022-10-16T05:09:12;3.50;;;2.50;;
1885;SDS011;943;51.568;6.998;2022-10-16T05:11:44;5.77;;;2.20;;
1885;SDS011;943;51.568;6.998;2022-10-16T05:14:11;4.37;;;2.07;;
1885;SDS011;943;51.568;6.998;2022-10-16T05:16:39;4.27;;;2.20;;
1885;SDS011;943;51.568;6.998;2022-10-16T05:19:07;5.50;;;2.57;;
1885;SDS011;943;51.568;6.998;2022-10-16T05:21:55;2.90;;;1.80;;
1885;SDS011;943;51.568;6.998;2022-10-16T05:24:23;7.40;;;2.50;;
1885;SDS011;943;51.568;6.998;2022-10-16T05:26:50;3.20;;;2.07;;
1885;SDS011;943;51.568;6.998;2022-10-16T05:29:18;4.07;;;1.90;;
1885;SDS011;943;51.568;6.998;2022-10-16T05:31:49;4.63;;;1.80;;
1885;SDS011;943;51.568;6.998;2022-10-16T05:34:20;5.17;;;1.83;;
1885;SDS011;943;51.568;6.998;2022-10-16T05:36:48;5.57;;;1.80;;
1885;SDS011;943;51.568;6.998;2022-10-16T05:39:16;3.90;;;2.23;;
1885;SDS011;943;51.568;6.998;2022-10-16T05:41:44;3.13;;;2.07;;
1885;SDS011;943;51.568;6.998;2022-10-16T05:44:12;3.17;;;1.70;;
1885;SDS011;943;51.568;6.998;2022-10-16T05:46:42;5.50;;;1.90;;
1885;SDS011;943;51.568;6.998;2022-10-16T05:49:12;5.67;;;1.70;;
1885;SDS011;943;51.568;6.998;2022-10-16T05:51:41;5.33;;;2.50;;
1885;SDS011;943;51.568;6.998;2022-10-16T05:54:08;7.23;;;1.90;;
1885;SDS011;943;51.568;6.998;2022-10-16T05:56:36;4.13;;;2.07;;
1885;SDS011;943;51.568;6.998;2022-10-16T05:59:04;5.33;;;1.87;;
1885;SDS011;943;51.568;6.998;2022-10-16T06:01:33;4.93;;;2.23;;
1885;SDS011;943;51.568;6.998;2022-10-16T06:04:01;4.37;;;2.50;;
1885;SDS011;943;51.568;6.998;2022-10-16T06:06:29;3.50;;;1.97;;
1885;SDS011;943;51.568;6.998;2022-10-16T06:08:57;3.90;;;1.70;;
1885;SDS011;943;51.568;6.998;2022-10-16T06:11:27;4.27;;;2.27;;
1885;SDS011;943;51.568;6.998;2022-10-16T06:14:00;6.73;;;2.73;;
1885;SDS011;943;51.568;6.998;2022-10-16T06:16:33;3.63;;;2.60;;
1885;SDS011;943;51.568;6.998;2022-10-16T06:19:04;3.47;;;2.27;;
1885;SDS011;943;51.568;6.998;2022-10-16T06:21:33;4.03;;;2.30;;
1885;SDS011;943;51.568;6.998;2022-10-16T06:24:01;6.90;;;2.03;;
1885;SDS011;943;51.568;6.998;2022-10-16T06:26:30;8.13;;;2.40;;
1885;SDS011;943;51.568;6.998;2022-10-16T06:28:58;5.80;;;2.10;;
1885;SDS011;943;51.568;6.998;2022-10-16T06:31:28;5.70;;;2.40;;
1885;SDS011;943;51.568;6.998;2022-10-16T06:33:58;4.00;;;2.13;;
1885;SDS011;943;51.568;6.998;2022-10-16T06:36:27;5.60;;;2.07;;
1885;SDS011;943;51.568;6.998;2022-10-16T06:38:55;3.70;;;2.40;;
1885;SDS011;943;51.568;6.998;2022-10-16T06:41:23;5.40;;;2.60;;
1885;SDS011;943;51.568;6.998;2022-10-16T06:43:50;4.10;;;2.13;;
1885;SDS011;943;51.568;6.998;2022-10-16T06:46:20;3.10;;;2.00;;
1885;SDS011;943;51.568;6.998;2022-10-16T06:48:52;2.80;;;2.20;;
1885;SDS011;943;51.568;6.998;2022-10-16T06:51:21;3.20;;;1.90;;
1885;SDS011;943;51.568;6.998;2022-10-16T06:53:52;2.60;;;1.80;;
1885;SDS011;943;51.568;6.998;2022-10-16T06:56:30;2.67;;;1.67;;
1885;SDS011;943;51.568;6.998;2022-10-16T06:59:00;3.00;;;2.50;;
1885;SDS011;943;51.568;6.998;2022-10-16T07:01:29;4.80;;;2.10;;
1885;SDS011;943;51.568;6.998;2022-10-16T07:03:59;3.07;;;1.60;;
1885;SDS011;943;51.568;6.998;2022-10-16T07:06:30;3.43;;;1.80;;
1885;SDS011;943;51.568;6.998;2022-10-16T07:09:01;3.23;;;2.07;;
1885;SDS011;943;51.568;6.998;2022-10-16T07:11:36;3.83;;;2.10;;
1885;SDS011;943;51.568;6.998;2022-10-16T07:14:17;7.77;;;2.50;;
1885;SDS011;943;51.568;6.998;2022-10-16T07:16:47;4.30;;;2.30;;
1885;SDS011;943;51.568;6.998;2022-10-16T07:19:15;5.20;;;2.37;;
1885;SDS011;943;51.568;6.998;2022-10-16T07:21:44;4.63;;;2.17;;
1885;SDS011;943;51.568;6.998;2022-10-16T07:24:14;6.90;;;2.97;;
1885;SDS011;943;51.568;6.998;2022-10-16T07:26:44;3.73;;;2.50;;
1885;SDS011;943;51.568;6.998;2022-10-16T07:29:13;6.20;;;3.07;;
1885;SDS011;943;51.568;6.998;2022-10-16T07:31:47;8.93;;;2.90;;
1885;SDS011;943;51.568;6.998;2022-10-16T07:34:17;3.37;;;2.37;;
1885;SDS011;943;51.568;6.998;2022-10-16T07:36:49;4.50;;;2.10;;
1885;SDS011;943;51.568;6.998;2022-10-16T07:39:17;4.90;;;3.23;;
1885;SDS011;943;51.568;6.998;2022-10-16T07:41:45;5.13;;;2.73;;
1885;SDS011;943;51.568;6.998;2022-10-16T07:44:13;3.30;;;2.13;;
1885;SDS011;943;51.568;6.998;2022-10-16T07:46:42;4.37;;;2.47;;
1885;SDS011;943;51.568;6.998;2022-10-16T07:49:10;3.80;;;2.30;;
1885;SDS011;943;51.568;6.998;2022-10-16T07:51:37;5.40;;;2.97;;
1885;SDS011;943;51.568;6.998;2022-10-16T07:54:05;4.10;;;2.43;;
1885;SDS011;943;51.568;6.998;2022-10-16T07:56:36;3.23;;;2.20;;
1885;SDS011;943;51.568;6.998;2022-10-16T07:59:09;3.80;;;2.80;;
1885;SDS011;943;51.568;6.998;2022-10-16T08:01:37;4.30;;;2.77;;
1885;SDS011;943;51.568;6.998;2022-10-16T08:04:05;4.70;;;2.20;;
1885;SDS011;943;51.568;6.998;2022-10-16T08:06:34;3.30;;;2.00;;
1885;SDS011;943;51.568;6.998;2022-10-16T08:09:07;2.93;;;1.93;;
1885;SDS011;943;51.568;6.998;2022-10-16T08:11:39;4.37;;;2.20;;
1885;SDS011;943;51.568;6.998;2022-10-16T08:14:06;5.20;;;1.83;;
1885;SDS011;943;51.568;6.998;2022-10-16T08:16:34;9.23;;;1.90;;
1885;SDS011;943;51.568;6.998;2022-10-16T08:19:02;3.90;;;1.70;;
1885;SDS011;943;51.568;6.998;2022-10-16T08:21:30;5.40;;;2.23;;
1885;SDS011;943;51.568;6.998;2022-10-16T08:23:58;4.07;;;1.90;;
1885;SDS011;943;51.568;6.998;2022-10-16T08:26:26;3.73;;;1.60;;
1885;SDS011;943;51.568;6.998;2022-10-16T08:28:54;3.40;;;1.60;;
1885;SDS011;943;51.568;6.998;2022-10-16T08:31:23;3.07;;;1.47;;
1885;SDS011;943;51.568;6.998;2022-10-16T08:33:52;6.20;;;1.70;;
1885;SDS011;943;51.568;6.998;2022-10-16T08:36:20;6.63;;;1.90;;
1885;SDS011;943;51.568;6.998;2022-10-16T08:38:48;4.70;;;1.80;;
1885;SDS011;943;51.568;6.998;2022-10-16T08:41:23;2.97;;;1.37;;
1885;SDS011;943;51.568;6.998;2022-10-16T08:50:24;5.03;;;1.97;;
1885;SDS011;943;51.568;6.998;2022-10-16T08:52:57;3.60;;;1.60;;
1885;SDS011;943;51.568;6.998;2022-10-16T08:58:14;4.13;;;1.83;;
1885;SDS011;943;51.568;6.998;2022-10-16T09:01:04;4.40;;;1.97;;
1885;SDS011;943;51.568;6.998;2022-10-16T09:07:26;4.40;;;2.30;;
1885;SDS011;943;51.568;6.998;2022-10-16T09:20:13;2.97;;;1.70;;
1885;SDS011;943;51.568;6.998;2022-10-16T09:23:13;4.23;;;1.50;;
1885;SDS011;943;51.568;6.998;2022-10-16T09:25:53;9.00;;;2.07;;
1885;SDS011;943;51.568;6.998;2022-10-16T09:28:25;5.27;;;1.70;;
1885;SDS011;943;51.568;6.998;2022-10-16T09:30:53;3.13;;;1.73;;
1885;SDS011;943;51.568;6.998;2022-10-16T09:33:23;4.20;;;1.63;;
1885;SDS011;943;51.568;6.998;2022-10-16T09:36:03;5.87;;;2.43;;
1885;SDS011;943;51.568;6.998;2022-10-16T09:38:34;2.97;;;1.70;;
1885;SDS011;943;51.568;6.998;2022-10-16T09:43:53;5.97;;;1.90;;
1885;SDS011;943;51.568;6.998;2022-10-16T09:46:29;5.93;;;1.90;;
1885;SDS011;943;51.568;6.998;2022-10-16T09:49:23;7.60;;;1.83;;
1885;SDS011;943;51.568;6.998;2022-10-16T09:52:03;3.90;;;1.90;;
1885;SDS011;943;51.568;6.998;2022-10-16T09:54:52;7.70;;;1.90;;
1885;SDS011;943;51.568;6.998;2022-10-16T09:57:25;3.37;;;1.93;;
1885;SDS011;943;51.568;6.998;2022-10-16T09:59:57;4.90;;;1.53;;
1885;SDS011;943;51.568;6.998;2022-10-16T10:02:36;3.57;;;2.03;;
1885;SDS011;943;51.568;6.998;2022-10-16T10:05:06;3.60;;;1.83;;
1885;SDS011;943;51.568;6.998;2022-10-16T10:10:38;5.53;;;1.70;;
1885;SDS011;943;51.568;6.998;2022-10-16T10:13:19;3.37;;;1.60;;
1885;SDS011;943;51.568;6.998;2022-10-16T10:15:51;4.70;;;1.67;;
1885;SDS011;943;51.568;6.998;2022-10-16T10:18:21;3.43;;;1.60;;
1885;SDS011;943;51.568;6.998;2022-10-16T10:21:00;3.50;;;1.80;;
1885;SDS011;943;51.568;6.998;2022-10-16T10:23:31;4.13;;;1.97;;
1885;SDS011;943;51.568;6.998;2022-10-16T10:32:12;5.37;;;2.97;;
1885;SDS011;943;51.568;6.998;2022-10-16T10:35:21;6.53;;;2.20;;
1885;SDS011;943;51.568;6.998;2022-10-16T10:38:57;5.47;;;2.10;;
1885;SDS011;943;51.568;6.998;2022-10-16T10:42:19;4.70;;;1.90;;
1885;SDS011;943;51.568;6.998;2022-10-16T10:45:16;5.20;;;2.00;;
1885;SDS011;943;51.568;6.998;2022-10-16T10:48:04;4.90;;;2.40;;
1885;SDS011;943;51.568;6.998;2022-10-16T10:51:12;4.97;;;1.80;;
1885;SDS011;943;51.568;6.998;2022-10-16T10:54:13;3.53;;;2.00;;
1885;SDS011;943;51.568;6.998;2022-10-16T10:57:09;5.20;;;2.23;;
1885;SDS011;943;51.568;6.998;2022-10-16T11:07:55;5.73;;;2.10;;
1885;SDS011;943;51.568;6.998;2022-10-16T11:10:40;4.50;;;1.67;;
1885;SDS011;943;51.568;6.998;2022-10-16T11:13:55;3.30;;;1.70;;
1885;SDS011;943;51.568;6.998;2022-10-16T11:22:56;7.20;;;2.43;;
1885;SDS011;943;51.568;6.998;2022-10-16T11:26:16;4.43;;;2.27;;
1885;SDS011;943;51.568;6.998;2022-10-16T11:29:02;6.93;;;2.67;;
1885;SDS011;943;51.568;6.998;2022-10-16T11:31:50;3.40;;;1.43;;
1885;SDS011;943;51.568;6.998;2022-10-16T11:34:49;5.13;;;1.60;;
1885;SDS011;943;51.568;6.998;2022-10-16T11:37:42;4.83;;;1.60;;
1885;SDS011;943;51.568;6.998;2022-10-16T11:43:16;6.37;;;1.40;;
1885;SDS011;943;51.568;6.998;2022-10-16T11:46:23;4.37;;;1.50;;
1885;SDS011;943;51.568;6.998;2022-10-16T11:49:15;2.70;;;1.50;;
1885;SDS011;943;51.568;6.998;2022-10-16T11:57:54;5.60;;;1.60;;
1885;SDS011;943;51.568;6.998;2022-10-16T12:07:24;6.10;;;2.03;;
1885;SDS011;943;51.568;6.998;2022-10-16T12:10:24;5.50;;;2.30;;
1885;SDS011;943;51.568;6.998;2022-10-16T12:18:45;4.63;;;1.70;;
1885;SDS011;943;51.568;6.998;2022-10-16T12:21:15;3.20;;;1.27;;
1885;SDS011;943;51.568;6.998;2022-10-16T12:23:56;2.83;;;1.10;;
1885;SDS011;943;51.568;6.998;2022-10-16T12:26:31;2.67;;;1.17;;
1885;SDS011;943;51.568;6.998;2022-10-16T12:29:19;4.53;;;1.30;;
1885;SDS011;943;51.568;6.998;2022-10-16T12:32:18;4.73;;;1.50;;
1885;SDS011;943;51.568;6.998;2022-10-16T12:35:19;3.40;;;1.20;;
1885;SDS011;943;51.568;6.998;2022-10-16T12:38:35;3.37;;;1.17;;
1885;SDS011;943;51.568;6.998;2022-10-16T12:41:08;6.30;;;1.50;;
1885;SDS011;943;51.568;6.998;2022-10-16T12:43:41;4.67;;;1.50;;
1885;SDS011;943;51.568;6.998;2022-10-16T12:48:43;5.30;;;1.37;;
1885;SDS011;943;51.568;6.998;2022-10-16T12:54:03;3.33;;;1.00;;
1885;SDS011;943;51.568;6.998;2022-10-16T13:06:38;3.77;;;2.00;;
1885;SDS011;943;51.568;6.998;2022-10-16T13:13:06;2.53;;;1.20;;
1885;SDS011;943;51.568;6.998;2022-10-16T13:26:31;5.20;;;1.30;;
1885;SDS011;943;51.568;6.998;2022-10-16T13:29:31;2.73;;;0.90;;
1885;SDS011;943;51.568;6.998;2022-10-16T13:32:00;3.77;;;1.13;;
1885;SDS011;943;51.568;6.998;2022-10-16T13:34:44;3.23;;;1.20;;
1885;SDS011;943;51.568;6.998;2022-10-16T13:37:19;6.53;;;1.57;;
1885;SDS011;943;51.568;6.998;2022-10-16T13:39:51;2.50;;;1.20;;
1885;SDS011;943;51.568;6.998;2022-10-16T13:42:54;3.57;;;1.47;;
1885;SDS011;943;51.568;6.998;2022-10-16T13:45:23;3.00;;;1.20;;
1885;SDS011;943;51.568;6.998;2022-10-16T13:48:04;4.57;;;1.73;;
1885;SDS011;943;51.568;6.998;2022-10-16T13:50:39;4.63;;;1.37;;
1885;SDS011;943;51.568;6.998;2022-10-16T13:53:12;5.30;;;2.97;;
1885;SDS011;943;51.568;6.998;2022-10-16T13:55:41;4.17;;;1.53;;
1885;SDS011;943;51.568;6.998;2022-10-16T13:58:13;3.30;;;1.60;;
1885;SDS011;943;51.568;6.998;2022-10-16T14:00:55;2.73;;;1.20;;
1885;SDS011;943;51.568;6.998;2022-10-16T14:03:34;4.10;;;1.80;;
1885;SDS011;943;51.568;6.998;2022-10-16T14:06:06;7.30;;;3.03;;
1885;SDS011;943;51.568;6.998;2022-10-16T14:08:45;6.27;;;1.90;;
1885;SDS011;943;51.568;6.998;2022-10-16T14:11:56;6.90;;;1.70;;
1885;SDS011;943;51.568;6.998;2022-10-16T14:14:34;6.20;;;1.53;;
1885;SDS011;943;51.568;6.998;2022-10-16T14:17:26;2.40;;;1.10;;
1885;SDS011;943;51.568;6.998;2022-10-16T14:20:03;2.97;;;1.20;;
1885;SDS011;943;51.568;6.998;2022-10-16T14:22:42;4.07;;;1.53;;
1885;SDS011;943;51.568;6.998;2022-10-16T14:36:11;3.80;;;1.20;;
1885;SDS011;943;51.568;6.998;2022-10-16T14:41:45;4.63;;;1.20;;
1885;SDS011;943;51.568;6.998;2022-10-16T14:44:18;3.07;;;1.20;;
1885;SDS011;943;51.568;6.998;2022-10-16T14:47:09;2.57;;;1.40;;
1885;SDS011;943;51.568;6.998;2022-10-16T14:49:52;3.73;;;1.10;;
1885;SDS011;943;51.568;6.998;2022-10-16T14:52:24;3.07;;;1.10;;
1885;SDS011;943;51.568;6.998;2022-10-16T14:54:52;2.33;;;1.33;;
1885;SDS011;943;51.568;6.998;2022-10-16T14:57:22;3.47;;;1.10;;
1885;SDS011;943;51.568;6.998;2022-10-16T14:59:58;10.13;;;1.30;;
1885;SDS011;943;51.568;6.998;2022-10-16T15:02:28;2.53;;;1.23;;
1885;SDS011;943;51.568;6.998;2022-10-16T15:05:12;3.20;;;1.37;;
1885;SDS011;943;51.568;6.998;2022-10-16T15:07:53;6.13;;;2.07;;
1885;SDS011;943;51.568;6.998;2022-10-16T15:10:22;4.20;;;1.60;;
1885;SDS011;943;51.568;6.998;2022-10-16T15:12:55;3.53;;;1.60;;
1885;SDS011;943;51.568;6.998;2022-10-16T15:18:10;3.10;;;1.27;;
1885;SDS011;943;51.568;6.998;2022-10-16T15:20:41;2.40;;;1.00;;
1885;SDS011;943;51.568;6.998;2022-10-16T15:23:14;3.10;;;1.30;;
1885;SDS011;943;51.568;6.998;2022-10-16T15:25:53;3.37;;;1.37;;
1885;SDS011;943;51.568;6.998;2022-10-16T15:28:24;3.33;;;1.30;;
1885;SDS011;943;51.568;6.998;2022-10-16T15:30:53;5.03;;;1.40;;
1885;SDS011;943;51.568;6.998;2022-10-16T15:33:24;5.10;;;1.67;;
1885;SDS011;943;51.568;6.998;2022-10-16T15:36:05;2.77;;;1.30;;
1885;SDS011;943;51.568;6.998;2022-10-16T15:38:33;3.70;;;1.60;;
1885;SDS011;943;51.568;6.998;2022-10-16T15:41:02;3.27;;;1.70;;
1885;SDS011;943;51.568;6.998;2022-10-16T15:43:30;3.47;;;1.53;;
1885;SDS011;943;51.568;6.998;2022-10-16T15:46:04;2.60;;;1.50;;
1885;SDS011;943;51.568;6.998;2022-10-16T15:48:40;8.97;;;1.40;;
1885;SDS011;943;51.568;6.998;2022-10-16T15:51:09;5.67;;;2.10;;
1885;SDS011;943;51.568;6.998;2022-10-16T15:53:37;4.60;;;2.27;;
1885;SDS011;943;51.568;6.998;2022-10-16T15:56:05;11.30;;;3.80;;
1885;SDS011;943;51.568;6.998;2022-10-16T15:58:37;6.80;;;3.50;;
1885;SDS011;943;51.568;6.998;2022-10-16T16:01:06;5.87;;;3.67;;
1885;SDS011;943;51.568;6.998;2022-10-16T16:03:36;5.10;;;3.13;;
1885;SDS011;943;51.568;6.998;2022-10-16T16:06:09;6.10;;;3.33;;
1885;SDS011;943;51.568;6.998;2022-10-16T16:08:40;6.07;;;3.30;;
1885;SDS011;943;51.568;6.998;2022-10-16T16:11:09;6.10;;;3.83;;
1885;SDS011;943;51.568;6.998;2022-10-16T16:13:43;6.97;;;3.47;;
1885;SDS011;943;51.568;6.998;2022-10-16T16:16:12;9.10;;;5.40;;
1885;SDS011;943;51.568;6.998;2022-10-16T16:18:44;8.33;;;4.57;;
1885;SDS011;943;51.568;6.998;2022-10-16T16:21:12;6.10;;;3.70;;
1885;SDS011;943;51.568;6.998;2022-10-16T16:23:40;9.03;;;4.13;;
1885;SDS011;943;51.568;6.998;2022-10-16T16:26:15;5.87;;;3.40;;
1885;SDS011;943;51.568;6.998;2022-10-16T16:29:03;5.63;;;3.47;;
1885;SDS011;943;51.568;6.998;2022-10-16T16:31:31;6.87;;;3.57;;
1885;SDS011;943;51.568;6.998;2022-10-16T16:34:01;12.83;;;4.90;;
1885;SDS011;943;51.568;6.998;2022-10-16T16:36:29;6.80;;;3.60;;
1885;SDS011;943;51.568;6.998;2022-10-16T16:38:58;4.80;;;2.90;;
1885;SDS011;943;51.568;6.998;2022-10-16T16:41:28;4.33;;;2.93;;
1885;SDS011;943;51.568;6.998;2022-10-16T16:44:07;8.03;;;3.13;;
1885;SDS011;943;51.568;6.998;2022-10-16T16:46:39;5.67;;;3.40;;
1885;SDS011;943;51.568;6.998;2022-10-16T16:49:10;5.60;;;3.10;;
1885;SDS011;943;51.568;6.998;2022-10-16T16:51:41;6.77;;;3.13;;
1885;SDS011;943;51.568;6.998;2022-10-16T16:54:09;6.90;;;3.57;;
1885;SDS011;943;51.568;6.998;2022-10-16T16:56:39;10.27;;;4.30;;
1885;SDS011;943;51.568;6.998;2022-10-16T16:59:10;6.97;;;4.87;;
1885;SDS011;943;51.568;6.998;2022-10-16T17:01:49;9.87;;;4.97;;
1885;SDS011;943;51.568;6.998;2022-10-16T17:04:22;5.37;;;3.20;;
1885;SDS011;943;51.568;6.998;2022-10-16T17:06:50;5.50;;;3.73;;
1885;SDS011;943;51.568;6.998;2022-10-16T17:09:21;6.07;;;3.97;;
1885;SDS011;943;51.568;6.998;2022-10-16T17:11:49;6.23;;;4.23;;
1885;SDS011;943;51.568;6.998;2022-10-16T17:14:17;6.00;;;3.63;;
1885;SDS011;943;51.568;6.998;2022-10-16T17:16:45;6.50;;;3.13;;
1885;SDS011;943;51.568;6.998;2022-10-16T17:19:15;10.33;;;4.60;;
1885;SDS011;943;51.568;6.998;2022-10-16T17:21:49;6.00;;;3.80;;
1885;SDS011;943;51.568;6.998;2022-10-16T17:24:18;7.60;;;3.30;;
1885;SDS011;943;51.568;6.998;2022-10-16T17:26:47;6.80;;;3.67;;
1885;SDS011;943;51.568;6.998;2022-10-16T17:29:15;7.60;;;3.80;;
1885;SDS011;943;51.568;6.998;2022-10-16T17:31:45;6.17;;;4.37;;
1885;SDS011;943;51.568;6.998;2022-10-16T17:34:15;7.00;;;3.67;;
1885;SDS011;943;51.568;6.998;2022-10-16T17:36:43;10.17;;;5.23;;
1885;SDS011;943;51.568;6.998;2022-10-16T17:39:13;5.87;;;4.50;;
1885;SDS011;943;51.568;6.998;2022-10-16T17:41:43;7.33;;;3.87;;
1885;SDS011;943;51.568;6.998;2022-10-16T17:44:14;5.70;;;4.03;;
1885;SDS011;943;51.568;6.998;2022-10-16T17:46:46;6.13;;;3.63;;
1885;SDS011;943;51.568;6.998;2022-10-16T17:49:19;6.20;;;4.20;;
1885;SDS011;943;51.568;6.998;2022-10-16T17:51:53;5.40;;;4.00;;
1885;SDS011;943;51.568;6.998;2022-10-16T17:54:21;8.23;;;5.30;;
1885;SDS011;943;51.568;6.998;2022-10-16T17:56:48;7.10;;;4.97;;
1885;SDS011;943;51.568;6.998;2022-10-16T17:59:16;6.43;;;4.47;;
1885;SDS011;943;51.568;6.998;2022-10-16T18:01:48;5.00;;;3.70;;
1885;SDS011;943;51.568;6.998;2022-10-16T18:04:16;11.00;;;4.40;;
1885;SDS011;943;51.568;6.998;2022-10-16T18:06:44;8.40;;;4.90;;
1885;SDS011;943;51.568;6.998;2022-10-16T18:09:13;7.60;;;4.03;;
1885;SDS011;943;51.568;6.998;2022-10-16T18:11:45;8.13;;;3.40;;
1885;SDS011;943;51.568;6.998;2022-10-16T18:14:15;6.87;;;4.20;;
1885;SDS011;943;51.568;6.998;2022-10-16T18:16:44;6.90;;;3.80;;
1885;SDS011;943;51.568;6.998;2022-10-16T18:19:12;6.53;;;4.20;;
1885;SDS011;943;51.568;6.998;2022-10-16T18:21:39;8.77;;;3.80;;
1885;SDS011;943;51.568;6.998;2022-10-16T18:24:08;5.33;;;3.73;;